sensor_id;sensor_type;location;lat;lon;timestamp;P1;durP1;ratioP1;P2;durP2;ratioP2
69083;SDS011;56185;48.526;9.044;2024-01-30T00:01:37;13.30;;;8.70;;
69083;SDS011;56185;48.526;9.044;2024-01-30T00:04:02;14.88;;;8.90;;
69083;SDS011;56185;48.526;9.044;2024-01-30T00:06:28;12.70;;;8.30;;
69083;SDS011;56185;48.526;9.044;2024-01-30T00:08:53;14.82;;;9.75;;
69083;SDS011;56185;48.526;9.044;2024-01-30T00:11:18;13.55;;;8.65;;
69083;SDS011;56185;48.526;9.044;2024-01-30T00:13:43;15.20;;;8.35;;
69083;SDS011;56185;48.526;9.044;2024-01-30T00:16:19;13.43;;;8.90;;
69083;SDS011;56185;48.526;9.044;2024-01-30T00:18:45;16.13;;;9.25;;
69083;SDS011;56185;48.526;9.044;2024-01-30T00:21:10;15.17;;;9.37;;
69083;SDS011;56185;48.526;9.044;2024-01-30T00:23:35;15.00;;;9.52;;
69083;SDS011;56185;48.526;9.044;2024-01-30T00:26:01;15.35;;;9.70;;
69083;SDS011;56185;48.526;9.044;2024-01-30T00:28:26;20.05;;;9.98;;
69083;SDS011;56185;48.526;9.044;2024-01-30T00:30:51;17.42;;;9.80;;
69083;SDS011;56185;48.526;9.044;2024-01-30T00:33:16;16.65;;;9.82;;
69083;SDS011;56185;48.526;9.044;2024-01-30T00:35:42;13.90;;;8.88;;
69083;SDS011;56185;48.526;9.044;2024-01-30T00:38:07;12.73;;;8.38;;
69083;SDS011;56185;48.526;9.044;2024-01-30T00:40:32;17.27;;;9.03;;
69083;SDS011;56185;48.526;9.044;2024-01-30T00:42:57;12.50;;;8.57;;
69083;SDS011;56185;48.526;9.044;2024-01-30T00:45:23;13.20;;;8.60;;
69083;SDS011;56185;48.526;9.044;2024-01-30T00:47:48;15.57;;;9.57;;
69083;SDS011;56185;48.526;9.044;2024-01-30T00:50:19;15.02;;;9.88;;
69083;SDS011;56185;48.526;9.044;2024-01-30T00:52:44;19.40;;;9.50;;
69083;SDS011;56185;48.526;9.044;2024-01-30T00:55:09;15.20;;;9.95;;
69083;SDS011;56185;48.526;9.044;2024-01-30T00:57:35;15.20;;;9.57;;
69083;SDS011;56185;48.526;9.044;2024-01-30T01:00:00;14.10;;;9.07;;
69083;SDS011;56185;48.526;9.044;2024-01-30T01:02:25;15.07;;;9.57;;
69083;SDS011;56185;48.526;9.044;2024-01-30T01:04:50;16.52;;;9.82;;
69083;SDS011;56185;48.526;9.044;2024-01-30T01:07:16;15.35;;;9.07;;
69083;SDS011;56185;48.526;9.044;2024-01-30T01:09:41;15.18;;;9.40;;
69083;SDS011;56185;48.526;9.044;2024-01-30T01:12:06;13.55;;;9.43;;
69083;SDS011;56185;48.526;9.044;2024-01-30T01:14:31;15.90;;;9.80;;
69083;SDS011;56185;48.526;9.044;2024-01-30T01:16:57;16.63;;;9.32;;
69083;SDS011;56185;48.526;9.044;2024-01-30T01:19:22;14.23;;;8.77;;
69083;SDS011;56185;48.526;9.044;2024-01-30T01:21:47;15.90;;;9.00;;
69083;SDS011;56185;48.526;9.044;2024-01-30T01:24:13;16.40;;;9.60;;
69083;SDS011;56185;48.526;9.044;2024-01-30T01:26:38;14.27;;;8.80;;
69083;SDS011;56185;48.526;9.044;2024-01-30T01:29:03;16.27;;;10.07;;
69083;SDS011;56185;48.526;9.044;2024-01-30T01:31:28;16.23;;;9.27;;
69083;SDS011;56185;48.526;9.044;2024-01-30T01:33:54;12.93;;;8.82;;
69083;SDS011;56185;48.526;9.044;2024-01-30T01:36:19;14.95;;;8.77;;
69083;SDS011;56185;48.526;9.044;2024-01-30T01:38:44;14.93;;;9.57;;
69083;SDS011;56185;48.526;9.044;2024-01-30T01:41:09;14.38;;;9.05;;
69083;SDS011;56185;48.526;9.044;2024-01-30T01:43:35;14.63;;;9.10;;
69083;SDS011;56185;48.526;9.044;2024-01-30T01:46:00;15.65;;;9.23;;
69083;SDS011;56185;48.526;9.044;2024-01-30T01:48:25;15.35;;;9.18;;
69083;SDS011;56185;48.526;9.044;2024-01-30T01:50:51;13.82;;;9.38;;
69083;SDS011;56185;48.526;9.044;2024-01-30T01:53:17;15.00;;;8.93;;
69083;SDS011;56185;48.526;9.044;2024-01-30T01:55:42;16.17;;;9.07;;
69083;SDS011;56185;48.526;9.044;2024-01-30T01:58:08;13.98;;;9.30;;
69083;SDS011;56185;48.526;9.044;2024-01-30T02:00:37;13.68;;;8.85;;
69083;SDS011;56185;48.526;9.044;2024-01-30T02:03:03;14.77;;;8.88;;
69083;SDS011;56185;48.526;9.044;2024-01-30T02:05:33;13.73;;;8.85;;
69083;SDS011;56185;48.526;9.044;2024-01-30T02:07:58;13.48;;;9.25;;
69083;SDS011;56185;48.526;9.044;2024-01-30T02:10:24;15.85;;;9.15;;
69083;SDS011;56185;48.526;9.044;2024-01-30T02:12:49;14.20;;;9.10;;
69083;SDS011;56185;48.526;9.044;2024-01-30T02:15:14;12.38;;;8.65;;
69083;SDS011;56185;48.526;9.044;2024-01-30T02:17:40;13.57;;;8.82;;
69083;SDS011;56185;48.526;9.044;2024-01-30T02:20:05;12.68;;;8.85;;
69083;SDS011;56185;48.526;9.044;2024-01-30T02:22:31;13.00;;;9.07;;
69083;SDS011;56185;48.526;9.044;2024-01-30T02:24:58;12.98;;;8.23;;
69083;SDS011;56185;48.526;9.044;2024-01-30T02:27:24;12.73;;;8.55;;
69083;SDS011;56185;48.526;9.044;2024-01-30T02:29:49;13.50;;;8.80;;
69083;SDS011;56185;48.526;9.044;2024-01-30T02:32:15;16.33;;;8.55;;
69083;SDS011;56185;48.526;9.044;2024-01-30T02:34:40;12.63;;;8.13;;
69083;SDS011;56185;48.526;9.044;2024-01-30T02:37:05;13.23;;;8.05;;
69083;SDS011;56185;48.526;9.044;2024-01-30T02:39:30;11.10;;;8.30;;
69083;SDS011;56185;48.526;9.044;2024-01-30T02:41:56;11.80;;;7.90;;
69083;SDS011;56185;48.526;9.044;2024-01-30T02:44:21;12.07;;;8.00;;
69083;SDS011;56185;48.526;9.044;2024-01-30T02:46:46;12.30;;;8.65;;
69083;SDS011;56185;48.526;9.044;2024-01-30T02:49:11;11.53;;;8.23;;
69083;SDS011;56185;48.526;9.044;2024-01-30T02:51:37;12.85;;;8.98;;
69083;SDS011;56185;48.526;9.044;2024-01-30T02:54:02;11.63;;;8.23;;
69083;SDS011;56185;48.526;9.044;2024-01-30T02:56:27;12.68;;;7.93;;
69083;SDS011;56185;48.526;9.044;2024-01-30T02:58:53;12.35;;;8.45;;
69083;SDS011;56185;48.526;9.044;2024-01-30T03:01:18;13.05;;;9.18;;
69083;SDS011;56185;48.526;9.044;2024-01-30T03:03:43;13.23;;;8.27;;
69083;SDS011;56185;48.526;9.044;2024-01-30T03:06:08;12.05;;;8.45;;
69083;SDS011;56185;48.526;9.044;2024-01-30T03:08:34;11.80;;;8.33;;
69083;SDS011;56185;48.526;9.044;2024-01-30T03:10:59;13.95;;;8.60;;
69083;SDS011;56185;48.526;9.044;2024-01-30T03:13:25;16.58;;;8.63;;
69083;SDS011;56185;48.526;9.044;2024-01-30T03:15:50;12.73;;;8.60;;
69083;SDS011;56185;48.526;9.044;2024-01-30T03:18:15;12.27;;;8.48;;
69083;SDS011;56185;48.526;9.044;2024-01-30T03:20:41;14.77;;;8.45;;
69083;SDS011;56185;48.526;9.044;2024-01-30T03:23:06;16.52;;;9.18;;
69083;SDS011;56185;48.526;9.044;2024-01-30T03:25:31;13.43;;;9.52;;
69083;SDS011;56185;48.526;9.044;2024-01-30T03:27:57;16.73;;;9.77;;
69083;SDS011;56185;48.526;9.044;2024-01-30T03:30:22;13.60;;;8.50;;
69083;SDS011;56185;48.526;9.044;2024-01-30T03:32:47;15.77;;;8.70;;
69083;SDS011;56185;48.526;9.044;2024-01-30T03:35:12;13.18;;;8.65;;
69083;SDS011;56185;48.526;9.044;2024-01-30T03:37:38;11.35;;;8.10;;
69083;SDS011;56185;48.526;9.044;2024-01-30T03:40:03;13.18;;;9.15;;
69083;SDS011;56185;48.526;9.044;2024-01-30T03:42:29;12.48;;;8.25;;
69083;SDS011;56185;48.526;9.044;2024-01-30T03:44:54;14.18;;;8.57;;
69083;SDS011;56185;48.526;9.044;2024-01-30T03:47:19;14.27;;;9.45;;
69083;SDS011;56185;48.526;9.044;2024-01-30T03:49:45;14.38;;;9.23;;
69083;SDS011;56185;48.526;9.044;2024-01-30T03:52:10;15.95;;;9.75;;
69083;SDS011;56185;48.526;9.044;2024-01-30T03:54:35;14.43;;;9.50;;
69083;SDS011;56185;48.526;9.044;2024-01-30T03:57:00;13.70;;;8.68;;
69083;SDS011;56185;48.526;9.044;2024-01-30T03:59:25;13.23;;;8.63;;
69083;SDS011;56185;48.526;9.044;2024-01-30T04:01:51;14.90;;;9.68;;
69083;SDS011;56185;48.526;9.044;2024-01-30T04:04:17;14.77;;;9.63;;
69083;SDS011;56185;48.526;9.044;2024-01-30T04:06:42;13.73;;;8.77;;
69083;SDS011;56185;48.526;9.044;2024-01-30T04:09:08;14.07;;;8.48;;
69083;SDS011;56185;48.526;9.044;2024-01-30T04:11:33;13.20;;;8.85;;
69083;SDS011;56185;48.526;9.044;2024-01-30T04:14:00;14.30;;;9.18;;
69083;SDS011;56185;48.526;9.044;2024-01-30T04:16:25;13.20;;;8.73;;
69083;SDS011;56185;48.526;9.044;2024-01-30T04:18:51;13.75;;;8.05;;
69083;SDS011;56185;48.526;9.044;2024-01-30T04:21:16;14.50;;;8.85;;
69083;SDS011;56185;48.526;9.044;2024-01-30T04:23:41;13.32;;;8.60;;
69083;SDS011;56185;48.526;9.044;2024-01-30T04:26:07;13.63;;;8.88;;
69083;SDS011;56185;48.526;9.044;2024-01-30T04:28:34;13.88;;;8.60;;
69083;SDS011;56185;48.526;9.044;2024-01-30T04:30:59;12.85;;;8.77;;
69083;SDS011;56185;48.526;9.044;2024-01-30T04:33:25;16.58;;;9.60;;
69083;SDS011;56185;48.526;9.044;2024-01-30T04:35:50;15.05;;;9.50;;
69083;SDS011;56185;48.526;9.044;2024-01-30T04:38:15;12.90;;;8.68;;
69083;SDS011;56185;48.526;9.044;2024-01-30T04:40:41;13.10;;;8.68;;
69083;SDS011;56185;48.526;9.044;2024-01-30T04:43:06;15.40;;;9.45;;
69083;SDS011;56185;48.526;9.044;2024-01-30T04:45:31;13.90;;;9.23;;
69083;SDS011;56185;48.526;9.044;2024-01-30T04:47:56;13.10;;;8.88;;
69083;SDS011;56185;48.526;9.044;2024-01-30T04:50:22;12.43;;;8.43;;
69083;SDS011;56185;48.526;9.044;2024-01-30T04:52:48;13.90;;;8.75;;
69083;SDS011;56185;48.526;9.044;2024-01-30T04:55:14;12.18;;;8.50;;
69083;SDS011;56185;48.526;9.044;2024-01-30T04:57:39;12.35;;;8.43;;
69083;SDS011;56185;48.526;9.044;2024-01-30T05:00:04;15.70;;;8.80;;
69083;SDS011;56185;48.526;9.044;2024-01-30T05:02:30;13.90;;;8.57;;
69083;SDS011;56185;48.526;9.044;2024-01-30T05:04:55;16.58;;;9.35;;
69083;SDS011;56185;48.526;9.044;2024-01-30T05:07:21;13.85;;;9.63;;
69083;SDS011;56185;48.526;9.044;2024-01-30T05:09:46;12.90;;;8.82;;
69083;SDS011;56185;48.526;9.044;2024-01-30T05:12:11;15.40;;;9.45;;
69083;SDS011;56185;48.526;9.044;2024-01-30T05:14:36;13.40;;;8.48;;
69083;SDS011;56185;48.526;9.044;2024-01-30T05:17:02;13.63;;;8.43;;
69083;SDS011;56185;48.526;9.044;2024-01-30T05:19:27;13.30;;;8.93;;
69083;SDS011;56185;48.526;9.044;2024-01-30T05:21:52;15.13;;;9.55;;
69083;SDS011;56185;48.526;9.044;2024-01-30T05:24:18;14.30;;;8.90;;
69083;SDS011;56185;48.526;9.044;2024-01-30T05:26:43;11.82;;;8.63;;
69083;SDS011;56185;48.526;9.044;2024-01-30T05:29:08;13.10;;;9.00;;
69083;SDS011;56185;48.526;9.044;2024-01-30T05:31:33;13.02;;;8.60;;
69083;SDS011;56185;48.526;9.044;2024-01-30T05:33:59;17.00;;;8.98;;
69083;SDS011;56185;48.526;9.044;2024-01-30T05:36:24;12.30;;;8.93;;
69083;SDS011;56185;48.526;9.044;2024-01-30T05:38:50;14.65;;;9.40;;
69083;SDS011;56185;48.526;9.044;2024-01-30T05:41:15;13.95;;;9.55;;
69083;SDS011;56185;48.526;9.044;2024-01-30T05:43:47;13.93;;;9.35;;
69083;SDS011;56185;48.526;9.044;2024-01-30T05:46:12;18.85;;;9.63;;
69083;SDS011;56185;48.526;9.044;2024-01-30T05:48:37;17.10;;;8.95;;
69083;SDS011;56185;48.526;9.044;2024-01-30T05:51:02;13.75;;;9.55;;
69083;SDS011;56185;48.526;9.044;2024-01-30T05:53:28;14.68;;;8.75;;
69083;SDS011;56185;48.526;9.044;2024-01-30T05:55:53;16.92;;;10.50;;
69083;SDS011;56185;48.526;9.044;2024-01-30T05:58:22;15.02;;;9.93;;
69083;SDS011;56185;48.526;9.044;2024-01-30T06:00:51;14.43;;;8.90;;
69083;SDS011;56185;48.526;9.044;2024-01-30T06:03:16;15.45;;;9.55;;
69083;SDS011;56185;48.526;9.044;2024-01-30T06:05:41;14.52;;;8.88;;
69083;SDS011;56185;48.526;9.044;2024-01-30T06:08:06;15.25;;;9.25;;
69083;SDS011;56185;48.526;9.044;2024-01-30T06:10:32;15.82;;;9.82;;
69083;SDS011;56185;48.526;9.044;2024-01-30T06:12:57;14.40;;;9.80;;
69083;SDS011;56185;48.526;9.044;2024-01-30T06:15:22;14.50;;;10.00;;
69083;SDS011;56185;48.526;9.044;2024-01-30T06:17:47;16.23;;;10.40;;
69083;SDS011;56185;48.526;9.044;2024-01-30T06:20:13;14.48;;;9.43;;
69083;SDS011;56185;48.526;9.044;2024-01-30T06:22:38;16.00;;;10.98;;
69083;SDS011;56185;48.526;9.044;2024-01-30T06:25:03;15.98;;;10.27;;
69083;SDS011;56185;48.526;9.044;2024-01-30T06:27:29;15.73;;;9.80;;
69083;SDS011;56185;48.526;9.044;2024-01-30T06:29:54;14.00;;;9.65;;
69083;SDS011;56185;48.526;9.044;2024-01-30T06:32:20;14.90;;;9.90;;
69083;SDS011;56185;48.526;9.044;2024-01-30T06:34:45;20.05;;;9.75;;
69083;SDS011;56185;48.526;9.044;2024-01-30T06:37:10;15.35;;;9.20;;
69083;SDS011;56185;48.526;9.044;2024-01-30T06:39:35;14.82;;;9.50;;
69083;SDS011;56185;48.526;9.044;2024-01-30T06:42:01;14.27;;;8.90;;
69083;SDS011;56185;48.526;9.044;2024-01-30T06:44:26;14.35;;;8.98;;
69083;SDS011;56185;48.526;9.044;2024-01-30T06:46:51;13.32;;;8.77;;
69083;SDS011;56185;48.526;9.044;2024-01-30T06:49:17;12.52;;;8.95;;
69083;SDS011;56185;48.526;9.044;2024-01-30T06:51:42;15.02;;;8.98;;
69083;SDS011;56185;48.526;9.044;2024-01-30T06:54:08;12.60;;;8.07;;
69083;SDS011;56185;48.526;9.044;2024-01-30T06:56:33;13.68;;;8.65;;
69083;SDS011;56185;48.526;9.044;2024-01-30T06:58:58;12.95;;;8.30;;
69083;SDS011;56185;48.526;9.044;2024-01-30T07:01:27;13.63;;;8.77;;
69083;SDS011;56185;48.526;9.044;2024-01-30T07:03:56;12.18;;;8.45;;
69083;SDS011;56185;48.526;9.044;2024-01-30T07:06:22;14.57;;;9.35;;
69083;SDS011;56185;48.526;9.044;2024-01-30T07:08:48;16.38;;;9.60;;
69083;SDS011;56185;48.526;9.044;2024-01-30T07:11:20;14.05;;;9.40;;
69083;SDS011;56185;48.526;9.044;2024-01-30T07:13:46;14.40;;;9.13;;
69083;SDS011;56185;48.526;9.044;2024-01-30T07:16:12;14.48;;;8.65;;
69083;SDS011;56185;48.526;9.044;2024-01-30T07:18:37;11.02;;;8.02;;
69083;SDS011;56185;48.526;9.044;2024-01-30T07:21:02;14.45;;;8.73;;
69083;SDS011;56185;48.526;9.044;2024-01-30T07:23:28;11.93;;;8.50;;
69083;SDS011;56185;48.526;9.044;2024-01-30T07:25:53;13.93;;;8.77;;
69083;SDS011;56185;48.526;9.044;2024-01-30T07:28:18;13.98;;;8.35;;
69083;SDS011;56185;48.526;9.044;2024-01-30T07:30:43;11.88;;;8.07;;
69083;SDS011;56185;48.526;9.044;2024-01-30T07:33:09;15.25;;;8.93;;
69083;SDS011;56185;48.526;9.044;2024-01-30T07:35:34;16.35;;;8.80;;
69083;SDS011;56185;48.526;9.044;2024-01-30T07:38:00;13.82;;;8.90;;
69083;SDS011;56185;48.526;9.044;2024-01-30T07:40:25;14.75;;;9.70;;
69083;SDS011;56185;48.526;9.044;2024-01-30T07:42:53;19.40;;;9.38;;
69083;SDS011;56185;48.526;9.044;2024-01-30T07:45:21;30.95;;;10.45;;
69083;SDS011;56185;48.526;9.044;2024-01-30T07:47:46;19.30;;;10.15;;
69083;SDS011;56185;48.526;9.044;2024-01-30T07:50:12;19.08;;;10.63;;
69083;SDS011;56185;48.526;9.044;2024-01-30T07:52:37;15.02;;;10.52;;
69083;SDS011;56185;48.526;9.044;2024-01-30T07:55:02;20.40;;;9.73;;
69083;SDS011;56185;48.526;9.044;2024-01-30T07:57:27;15.52;;;9.60;;
69083;SDS011;56185;48.526;9.044;2024-01-30T07:59:55;17.58;;;9.82;;
69083;SDS011;56185;48.526;9.044;2024-01-30T08:02:21;15.30;;;10.48;;
69083;SDS011;56185;48.526;9.044;2024-01-30T08:04:46;14.35;;;10.40;;
69083;SDS011;56185;48.526;9.044;2024-01-30T08:07:11;21.70;;;11.30;;
69083;SDS011;56185;48.526;9.044;2024-01-30T08:09:37;23.40;;;11.23;;
69083;SDS011;56185;48.526;9.044;2024-01-30T08:12:02;17.65;;;11.32;;
69083;SDS011;56185;48.526;9.044;2024-01-30T08:14:27;15.77;;;10.70;;
69083;SDS011;56185;48.526;9.044;2024-01-30T08:16:53;16.55;;;10.45;;
69083;SDS011;56185;48.526;9.044;2024-01-30T08:19:18;16.77;;;9.93;;
69083;SDS011;56185;48.526;9.044;2024-01-30T08:21:43;16.95;;;9.52;;
69083;SDS011;56185;48.526;9.044;2024-01-30T08:24:09;13.82;;;9.38;;
69083;SDS011;56185;48.526;9.044;2024-01-30T08:26:34;13.05;;;8.80;;
69083;SDS011;56185;48.526;9.044;2024-01-30T08:29:00;13.80;;;9.85;;
69083;SDS011;56185;48.526;9.044;2024-01-30T08:31:26;14.57;;;10.10;;
69083;SDS011;56185;48.526;9.044;2024-01-30T08:33:51;14.65;;;9.07;;
69083;SDS011;56185;48.526;9.044;2024-01-30T08:36:17;14.48;;;9.18;;
69083;SDS011;56185;48.526;9.044;2024-01-30T08:38:42;14.85;;;9.73;;
69083;SDS011;56185;48.526;9.044;2024-01-30T08:41:07;18.48;;;10.10;;
69083;SDS011;56185;48.526;9.044;2024-01-30T08:43:33;14.95;;;9.73;;
69083;SDS011;56185;48.526;9.044;2024-01-30T08:45:59;12.95;;;9.70;;
69083;SDS011;56185;48.526;9.044;2024-01-30T08:48:24;15.48;;;9.75;;
69083;SDS011;56185;48.526;9.044;2024-01-30T08:50:49;12.63;;;9.20;;
69083;SDS011;56185;48.526;9.044;2024-01-30T08:53:15;13.63;;;9.55;;
69083;SDS011;56185;48.526;9.044;2024-01-30T08:55:40;15.68;;;9.18;;
69083;SDS011;56185;48.526;9.044;2024-01-30T08:58:05;14.70;;;9.05;;
69083;SDS011;56185;48.526;9.044;2024-01-30T09:00:33;12.95;;;8.48;;
69083;SDS011;56185;48.526;9.044;2024-01-30T09:02:58;14.68;;;9.13;;
69083;SDS011;56185;48.526;9.044;2024-01-30T09:05:23;15.85;;;9.35;;
69083;SDS011;56185;48.526;9.044;2024-01-30T09:07:49;13.93;;;9.40;;
69083;SDS011;56185;48.526;9.044;2024-01-30T09:10:14;14.07;;;9.63;;
69083;SDS011;56185;48.526;9.044;2024-01-30T09:12:39;13.43;;;9.10;;
69083;SDS011;56185;48.526;9.044;2024-01-30T09:15:04;12.35;;;9.68;;
69083;SDS011;56185;48.526;9.044;2024-01-30T09:17:30;15.55;;;9.43;;
69083;SDS011;56185;48.526;9.044;2024-01-30T09:19:55;15.32;;;9.13;;
69083;SDS011;56185;48.526;9.044;2024-01-30T09:22:20;13.48;;;9.63;;
69083;SDS011;56185;48.526;9.044;2024-01-30T09:24:46;18.13;;;10.63;;
69083;SDS011;56185;48.526;9.044;2024-01-30T09:27:11;18.65;;;11.70;;
69083;SDS011;56185;48.526;9.044;2024-01-30T09:29:36;18.98;;;10.65;;
69083;SDS011;56185;48.526;9.044;2024-01-30T09:32:01;16.63;;;11.18;;
69083;SDS011;56185;48.526;9.044;2024-01-30T09:34:27;22.02;;;11.13;;
69083;SDS011;56185;48.526;9.044;2024-01-30T09:37:01;15.88;;;11.13;;
69083;SDS011;56185;48.526;9.044;2024-01-30T09:39:26;15.73;;;10.30;;
69083;SDS011;56185;48.526;9.044;2024-01-30T09:41:55;16.42;;;10.68;;
69083;SDS011;56185;48.526;9.044;2024-01-30T09:44:25;15.07;;;10.13;;
69083;SDS011;56185;48.526;9.044;2024-01-30T09:46:53;17.20;;;9.98;;
69083;SDS011;56185;48.526;9.044;2024-01-30T09:49:20;16.77;;;10.85;;
69083;SDS011;56185;48.526;9.044;2024-01-30T09:51:45;16.88;;;10.75;;
69083;SDS011;56185;48.526;9.044;2024-01-30T09:54:13;19.58;;;11.82;;
69083;SDS011;56185;48.526;9.044;2024-01-30T09:56:39;17.98;;;11.85;;
69083;SDS011;56185;48.526;9.044;2024-01-30T10:17:07;20.98;;;12.50;;
69083;SDS011;56185;48.526;9.044;2024-01-30T10:19:33;21.30;;;13.35;;
69083;SDS011;56185;48.526;9.044;2024-01-30T10:21:59;25.17;;;14.43;;
69083;SDS011;56185;48.526;9.044;2024-01-30T10:24:25;20.98;;;12.98;;
69083;SDS011;56185;48.526;9.044;2024-01-30T10:26:51;22.75;;;12.88;;
69083;SDS011;56185;48.526;9.044;2024-01-30T10:29:16;21.33;;;12.95;;
69083;SDS011;56185;48.526;9.044;2024-01-30T10:31:42;23.05;;;14.32;;
69083;SDS011;56185;48.526;9.044;2024-01-30T10:34:07;22.00;;;13.15;;
69083;SDS011;56185;48.526;9.044;2024-01-30T10:36:32;21.50;;;13.05;;
69083;SDS011;56185;48.526;9.044;2024-01-30T10:39:04;21.13;;;13.50;;
69083;SDS011;56185;48.526;9.044;2024-01-30T10:41:31;19.63;;;12.40;;
69083;SDS011;56185;48.526;9.044;2024-01-30T10:44:14;20.58;;;11.10;;
69083;SDS011;56185;48.526;9.044;2024-01-30T10:46:44;17.27;;;10.50;;
69083;SDS011;56185;48.526;9.044;2024-01-30T10:49:13;16.65;;;9.75;;
69083;SDS011;56185;48.526;9.044;2024-01-30T10:51:39;19.85;;;11.43;;
69083;SDS011;56185;48.526;9.044;2024-01-30T10:54:05;15.63;;;10.82;;
69083;SDS011;56185;48.526;9.044;2024-01-30T10:56:32;17.73;;;11.85;;
69083;SDS011;56185;48.526;9.044;2024-01-30T10:58:58;18.08;;;11.80;;
69083;SDS011;56185;48.526;9.044;2024-01-30T11:01:24;19.33;;;11.70;;
69083;SDS011;56185;48.526;9.044;2024-01-30T11:03:50;18.42;;;12.45;;
69083;SDS011;56185;48.526;9.044;2024-01-30T11:06:17;17.98;;;11.18;;
69083;SDS011;56185;48.526;9.044;2024-01-30T11:08:42;21.02;;;10.95;;
69083;SDS011;56185;48.526;9.044;2024-01-30T11:11:08;18.55;;;10.52;;
69083;SDS011;56185;48.526;9.044;2024-01-30T11:13:34;21.00;;;11.73;;
69083;SDS011;56185;48.526;9.044;2024-01-30T11:16:03;20.92;;;12.02;;
69083;SDS011;56185;48.526;9.044;2024-01-30T11:18:30;26.20;;;13.80;;
69083;SDS011;56185;48.526;9.044;2024-01-30T11:20:56;26.65;;;15.40;;
69083;SDS011;56185;48.526;9.044;2024-01-30T11:23:22;25.88;;;15.05;;
69083;SDS011;56185;48.526;9.044;2024-01-30T11:25:48;20.05;;;13.82;;
69083;SDS011;56185;48.526;9.044;2024-01-30T11:28:16;22.52;;;12.85;;
69083;SDS011;56185;48.526;9.044;2024-01-30T11:30:41;24.67;;;12.63;;
69083;SDS011;56185;48.526;9.044;2024-01-30T11:33:11;17.33;;;10.82;;
69083;SDS011;56185;48.526;9.044;2024-01-30T11:35:38;18.80;;;11.05;;
69083;SDS011;56185;48.526;9.044;2024-01-30T11:38:05;17.95;;;11.85;;
69083;SDS011;56185;48.526;9.044;2024-01-30T11:40:31;18.55;;;11.27;;
69083;SDS011;56185;48.526;9.044;2024-01-30T11:43:01;18.13;;;11.50;;
69083;SDS011;56185;48.526;9.044;2024-01-30T11:45:27;18.75;;;11.15;;
69083;SDS011;56185;48.526;9.044;2024-01-30T11:47:53;14.85;;;10.43;;
69083;SDS011;56185;48.526;9.044;2024-01-30T11:50:19;20.38;;;11.43;;
69083;SDS011;56185;48.526;9.044;2024-01-30T11:52:44;13.45;;;9.93;;
69083;SDS011;56185;48.526;9.044;2024-01-30T11:55:10;16.65;;;10.73;;
69083;SDS011;56185;48.526;9.044;2024-01-30T11:57:35;17.63;;;11.35;;
69083;SDS011;56185;48.526;9.044;2024-01-30T12:00:01;14.45;;;9.48;;
69083;SDS011;56185;48.526;9.044;2024-01-30T12:02:26;13.18;;;9.25;;
69083;SDS011;56185;48.526;9.044;2024-01-30T12:04:52;14.07;;;9.30;;
69083;SDS011;56185;48.526;9.044;2024-01-30T12:07:17;22.83;;;14.10;;
69083;SDS011;56185;48.526;9.044;2024-01-30T12:09:51;18.42;;;12.02;;
69083;SDS011;56185;48.526;9.044;2024-01-30T12:14:42;18.92;;;10.50;;
69083;SDS011;56185;48.526;9.044;2024-01-30T12:17:08;17.63;;;11.30;;
69083;SDS011;56185;48.526;9.044;2024-01-30T12:19:33;15.63;;;10.93;;
69083;SDS011;56185;48.526;9.044;2024-01-30T12:21:58;17.63;;;10.53;;
69083;SDS011;56185;48.526;9.044;2024-01-30T12:24:23;18.13;;;10.63;;
69083;SDS011;56185;48.526;9.044;2024-01-30T12:26:50;17.83;;;10.13;;
69083;SDS011;56185;48.526;9.044;2024-01-30T12:29:15;17.83;;;10.35;;
69083;SDS011;56185;48.526;9.044;2024-01-30T12:31:41;20.60;;;11.48;;
69083;SDS011;56185;48.526;9.044;2024-01-30T12:34:07;19.05;;;10.70;;
69083;SDS011;56185;48.526;9.044;2024-01-30T12:36:33;19.17;;;10.63;;
69083;SDS011;56185;48.526;9.044;2024-01-30T12:38:59;17.92;;;10.05;;
69083;SDS011;56185;48.526;9.044;2024-01-30T12:41:24;18.15;;;11.60;;
69083;SDS011;56185;48.526;9.044;2024-01-30T12:43:50;19.90;;;11.38;;
69083;SDS011;56185;48.526;9.044;2024-01-30T12:46:16;17.75;;;12.00;;
69083;SDS011;56185;48.526;9.044;2024-01-30T12:48:42;20.02;;;12.45;;
69083;SDS011;56185;48.526;9.044;2024-01-30T12:51:07;18.27;;;11.43;;
69083;SDS011;56185;48.526;9.044;2024-01-30T12:53:33;15.63;;;10.57;;
69083;SDS011;56185;48.526;9.044;2024-01-30T12:55:58;18.05;;;10.10;;
69083;SDS011;56185;48.526;9.044;2024-01-30T12:58:23;19.05;;;9.98;;
69083;SDS011;56185;48.526;9.044;2024-01-30T13:00:49;17.48;;;10.73;;
69083;SDS011;56185;48.526;9.044;2024-01-30T13:03:14;21.40;;;10.63;;
69083;SDS011;56185;48.526;9.044;2024-01-30T13:05:39;19.77;;;10.65;;
69083;SDS011;56185;48.526;9.044;2024-01-30T13:08:05;14.45;;;9.82;;
69083;SDS011;56185;48.526;9.044;2024-01-30T13:10:30;17.50;;;10.13;;
69083;SDS011;56185;48.526;9.044;2024-01-30T13:12:55;19.10;;;10.20;;
69083;SDS011;56185;48.526;9.044;2024-01-30T13:15:21;16.98;;;9.65;;
69083;SDS011;56185;48.526;9.044;2024-01-30T13:17:46;16.85;;;9.50;;
69083;SDS011;56185;48.526;9.044;2024-01-30T13:20:11;15.23;;;9.68;;
69083;SDS011;56185;48.526;9.044;2024-01-30T13:22:37;14.02;;;9.52;;
69083;SDS011;56185;48.526;9.044;2024-01-30T13:25:02;15.35;;;10.18;;
69083;SDS011;56185;48.526;9.044;2024-01-30T13:27:27;16.45;;;9.55;;
69083;SDS011;56185;48.526;9.044;2024-01-30T13:29:53;18.15;;;9.52;;
69083;SDS011;56185;48.526;9.044;2024-01-30T13:32:18;18.27;;;9.70;;
69083;SDS011;56185;48.526;9.044;2024-01-30T13:34:43;16.75;;;10.10;;
69083;SDS011;56185;48.526;9.044;2024-01-30T13:37:08;17.67;;;9.57;;
69083;SDS011;56185;48.526;9.044;2024-01-30T13:39:34;18.95;;;9.55;;
69083;SDS011;56185;48.526;9.044;2024-01-30T13:41:59;13.27;;;9.23;;
69083;SDS011;56185;48.526;9.044;2024-01-30T13:44:25;17.75;;;8.98;;
69083;SDS011;56185;48.526;9.044;2024-01-30T13:46:50;13.98;;;8.85;;
69083;SDS011;56185;48.526;9.044;2024-01-30T13:49:15;13.07;;;8.88;;
69083;SDS011;56185;48.526;9.044;2024-01-30T13:51:40;14.60;;;8.80;;
69083;SDS011;56185;48.526;9.044;2024-01-30T13:54:06;15.80;;;9.67;;
69083;SDS011;56185;48.526;9.044;2024-01-30T13:56:31;19.87;;;11.20;;
69083;SDS011;56185;48.526;9.044;2024-01-30T13:58:56;20.17;;;11.30;;
69083;SDS011;56185;48.526;9.044;2024-01-30T14:01:22;14.48;;;8.75;;
69083;SDS011;56185;48.526;9.044;2024-01-30T14:03:47;14.98;;;8.80;;
69083;SDS011;56185;48.526;9.044;2024-01-30T14:06:13;13.00;;;7.97;;
69083;SDS011;56185;48.526;9.044;2024-01-30T14:08:41;21.23;;;11.20;;
69083;SDS011;56185;48.526;9.044;2024-01-30T14:11:07;26.73;;;11.95;;
69083;SDS011;56185;48.526;9.044;2024-01-30T14:13:32;20.27;;;10.37;;
69083;SDS011;56185;48.526;9.044;2024-01-30T14:15:57;12.60;;;9.10;;
69083;SDS011;56185;48.526;9.044;2024-01-30T14:18:23;19.05;;;8.93;;
69083;SDS011;56185;48.526;9.044;2024-01-30T14:20:48;18.33;;;10.23;;
69083;SDS011;56185;48.526;9.044;2024-01-30T14:23:13;15.90;;;9.13;;
69083;SDS011;56185;48.526;9.044;2024-01-30T14:25:43;17.33;;;9.07;;
69083;SDS011;56185;48.526;9.044;2024-01-30T14:28:08;15.57;;;8.13;;
69083;SDS011;56185;48.526;9.044;2024-01-30T14:30:34;12.45;;;7.88;;
69083;SDS011;56185;48.526;9.044;2024-01-30T14:33:01;13.02;;;7.35;;
69083;SDS011;56185;48.526;9.044;2024-01-30T14:35:27;13.73;;;7.30;;
69083;SDS011;56185;48.526;9.044;2024-01-30T14:37:52;11.27;;;6.88;;
69083;SDS011;56185;48.526;9.044;2024-01-30T14:40:18;11.32;;;6.63;;
69083;SDS011;56185;48.526;9.044;2024-01-30T14:42:46;17.17;;;7.78;;